sensor_id;sensor_type;location;lat;lon;timestamp;pressure;altitude;pressure_sealevel;temperature;humidity
22653;BME280;11493;43.344;26.226;2022-07-17T00:02:19;99421.53;;;21.76;82.93
22653;BME280;11493;43.344;26.226;2022-07-17T00:04:47;99419.13;;;21.78;82.60
22653;BME280;11493;43.344;26.226;2022-07-17T00:07:14;99419.56;;;21.80;82.32
22653;BME280;11493;43.344;26.226;2022-07-17T00:09:41;99411.06;;;21.70;82.60
22653;BME280;11493;43.344;26.226;2022-07-17T00:12:09;99413.91;;;21.73;82.91
22653;BME280;11493;43.344;26.226;2022-07-17T00:14:37;99398.25;;;21.69;82.78
22653;BME280;11493;43.344;26.226;2022-07-17T00:17:05;99413.19;;;21.83;82.87
22653;BME280;11493;43.344;26.226;2022-07-17T00:19:32;99422.88;;;21.93;81.98
22653;BME280;11493;43.344;26.226;2022-07-17T00:21:59;99402.44;;;21.92;81.62
22653;BME280;11493;43.344;26.226;2022-07-17T00:24:27;99412.91;;;21.99;81.91
22653;BME280;11493;43.344;26.226;2022-07-17T00:26:54;99415.81;;;22.10;81.30
22653;BME280;11493;43.344;26.226;2022-07-17T00:29:22;99408.56;;;22.05;81.30
22653;BME280;11493;43.344;26.226;2022-07-17T00:31:49;99423.81;;;22.11;80.82
22653;BME280;11493;43.344;26.226;2022-07-17T00:34:17;99418.19;;;22.08;80.83
22653;BME280;11493;43.344;26.226;2022-07-17T00:36:47;99422.19;;;22.07;80.85
22653;BME280;11493;43.344;26.226;2022-07-17T00:39:14;99414.03;;;21.91;81.26
22653;BME280;11493;43.344;26.226;2022-07-17T00:41:45;99401.16;;;21.83;81.04
22653;BME280;11493;43.344;26.226;2022-07-17T00:44:13;99408.81;;;21.89;81.04
22653;BME280;11493;43.344;26.226;2022-07-17T00:46:40;99424.47;;;21.94;81.05
22653;BME280;11493;43.344;26.226;2022-07-17T00:49:09;99422.47;;;21.94;81.35
22653;BME280;11493;43.344;26.226;2022-07-17T00:51:36;99406.38;;;21.84;81.40
22653;BME280;11493;43.344;26.226;2022-07-17T00:54:04;99413.50;;;21.75;81.70
22653;BME280;11493;43.344;26.226;2022-07-17T00:56:37;99424.75;;;21.78;81.67
22653;BME280;11493;43.344;26.226;2022-07-17T00:59:05;99428.69;;;21.74;82.22
22653;BME280;11493;43.344;26.226;2022-07-17T01:01:33;99435.50;;;21.73;82.23
22653;BME280;11493;43.344;26.226;2022-07-17T01:04:00;99444.66;;;21.70;82.49
22653;BME280;11493;43.344;26.226;2022-07-17T01:06:27;99441.38;;;21.60;82.87
22653;BME280;11493;43.344;26.226;2022-07-17T01:08:55;99425.34;;;21.54;83.29
22653;BME280;11493;43.344;26.226;2022-07-17T01:11:22;99439.75;;;21.56;83.75
22653;BME280;11493;43.344;26.226;2022-07-17T01:13:50;99433.72;;;21.50;83.73
22653;BME280;11493;43.344;26.226;2022-07-17T01:16:18;99435.72;;;21.50;84.09
22653;BME280;11493;43.344;26.226;2022-07-17T01:18:45;99442.88;;;21.47;84.05
22653;BME280;11493;43.344;26.226;2022-07-17T01:21:12;99418.75;;;21.32;84.66
22653;BME280;11493;43.344;26.226;2022-07-17T01:23:40;99448.41;;;21.40;84.45
22653;BME280;11493;43.344;26.226;2022-07-17T01:26:07;99445.19;;;21.38;84.75
22653;BME280;11493;43.344;26.226;2022-07-17T01:28:34;99447.56;;;21.36;84.37
22653;BME280;11493;43.344;26.226;2022-07-17T01:31:01;99440.63;;;21.23;84.72
22653;BME280;11493;43.344;26.226;2022-07-17T01:33:30;99452.28;;;21.28;84.91
22653;BME280;11493;43.344;26.226;2022-07-17T01:35:57;99441.66;;;21.11;85.03
22653;BME280;11493;43.344;26.226;2022-07-17T01:38:25;99438.84;;;21.08;85.61
22653;BME280;11493;43.344;26.226;2022-07-17T01:40:52;99458.84;;;21.10;86.13
22653;BME280;11493;43.344;26.226;2022-07-17T01:43:19;99431.13;;;20.97;86.57
22653;BME280;11493;43.344;26.226;2022-07-17T01:45:48;99458.41;;;21.08;86.45
22653;BME280;11493;43.344;26.226;2022-07-17T01:48:28;99438.06;;;21.11;86.17
22653;BME280;11493;43.344;26.226;2022-07-17T01:50:56;99444.63;;;21.22;86.05
22653;BME280;11493;43.344;26.226;2022-07-17T01:53:24;99456.25;;;21.24;85.64
22653;BME280;11493;43.344;26.226;2022-07-17T01:55:52;99433.16;;;21.34;84.75
22653;BME280;11493;43.344;26.226;2022-07-17T01:58:19;99444.50;;;21.48;83.67
22653;BME280;11493;43.344;26.226;2022-07-17T02:00:46;99435.19;;;21.37;83.81
22653;BME280;11493;43.344;26.226;2022-07-17T02:03:13;99438.78;;;21.38;84.05
22653;BME280;11493;43.344;26.226;2022-07-17T02:05:41;99431.06;;;21.24;84.45
22653;BME280;11493;43.344;26.226;2022-07-17T02:08:08;99425.78;;;21.19;84.26
22653;BME280;11493;43.344;26.226;2022-07-17T02:10:36;99436.22;;;21.22;83.78
22653;BME280;11493;43.344;26.226;2022-07-17T02:13:03;99445.53;;;21.33;83.47
22653;BME280;11493;43.344;26.226;2022-07-17T02:15:50;99430.66;;;21.25;82.89
22653;BME280;11493;43.344;26.226;2022-07-17T02:18:17;99447.53;;;21.33;82.44
22653;BME280;11493;43.344;26.226;2022-07-17T02:20:45;99447.53;;;21.33;82.18
22653;BME280;11493;43.344;26.226;2022-07-17T02:23:16;99424.91;;;21.15;81.77
22653;BME280;11493;43.344;26.226;2022-07-17T02:25:44;99445.50;;;21.29;81.79
22653;BME280;11493;43.344;26.226;2022-07-17T02:28:11;99447.13;;;21.30;81.49
22653;BME280;11493;43.344;26.226;2022-07-17T02:30:38;99448.25;;;21.26;81.75
22653;BME280;11493;43.344;26.226;2022-07-17T02:33:05;99449.34;;;21.18;81.62
22653;BME280;11493;43.344;26.226;2022-07-17T02:35:33;99447.22;;;21.08;82.32
22653;BME280;11493;43.344;26.226;2022-07-17T02:38:01;99451.22;;;21.07;82.04
22653;BME280;11493;43.344;26.226;2022-07-17T02:40:28;99449.09;;;20.96;82.18
22653;BME280;11493;43.344;26.226;2022-07-17T02:42:55;99455.53;;;21.00;83.19
22653;BME280;11493;43.344;26.226;2022-07-17T02:45:23;99464.31;;;20.99;82.13
22653;BME280;11493;43.344;26.226;2022-07-17T02:47:54;99440.19;;;20.87;80.19
22653;BME280;11493;43.344;26.226;2022-07-17T02:50:22;99466.81;;;21.08;80.03
22653;BME280;11493;43.344;26.226;2022-07-17T02:52:49;99461.97;;;21.05;79.74
22653;BME280;11493;43.344;26.226;2022-07-17T02:55:17;99461.16;;;21.04;79.35
22653;BME280;11493;43.344;26.226;2022-07-17T02:57:45;99456.38;;;21.05;78.17
22653;BME280;11493;43.344;26.226;2022-07-17T03:00:16;99468.50;;;21.16;76.72
22653;BME280;11493;43.344;26.226;2022-07-17T03:02:45;99471.50;;;21.30;74.42
22653;BME280;11493;43.344;26.226;2022-07-17T03:05:14;99460.31;;;21.30;73.07
22653;BME280;11493;43.344;26.226;2022-07-17T03:07:43;99473.72;;;21.54;72.00
22653;BME280;11493;43.344;26.226;2022-07-17T03:10:11;99482.59;;;21.60;70.94
22653;BME280;11493;43.344;26.226;2022-07-17T03:12:39;99479.88;;;21.71;69.96
22653;BME280;11493;43.344;26.226;2022-07-17T03:15:07;99487.53;;;21.74;70.89
22653;BME280;11493;43.344;26.226;2022-07-17T03:17:35;99462.19;;;21.59;70.34
22653;BME280;11493;43.344;26.226;2022-07-17T03:20:03;99480.69;;;21.71;70.43
22653;BME280;11493;43.344;26.226;2022-07-17T03:22:30;99462.53;;;21.54;69.99
22653;BME280;11493;43.344;26.226;2022-07-17T03:24:57;99490.38;;;21.81;67.91
22653;BME280;11493;43.344;26.226;2022-07-17T03:27:25;99488.06;;;21.90;67.75
22653;BME280;11493;43.344;26.226;2022-07-17T03:29:53;99484.94;;;21.98;66.91
22653;BME280;11493;43.344;26.226;2022-07-17T03:32:21;99478.13;;;21.96;65.81
22653;BME280;11493;43.344;26.226;2022-07-17T03:34:49;99488.28;;;22.11;65.11
22653;BME280;11493;43.344;26.226;2022-07-17T03:37:16;99495.56;;;22.19;65.13
22653;BME280;11493;43.344;26.226;2022-07-17T03:39:44;99495.63;;;22.34;65.11
22653;BME280;11493;43.344;26.226;2022-07-17T03:42:11;99498.03;;;22.35;65.31
22653;BME280;11493;43.344;26.226;2022-07-17T03:44:38;99492.03;;;22.33;64.72
22653;BME280;11493;43.344;26.226;2022-07-17T03:47:06;99484.00;;;22.28;64.96
22653;BME280;11493;43.344;26.226;2022-07-17T03:49:33;99504.50;;;22.43;65.12
22653;BME280;11493;43.344;26.226;2022-07-17T03:52:00;99486.06;;;22.38;64.47
22653;BME280;11493;43.344;26.226;2022-07-17T03:54:27;99514.97;;;22.49;64.95
22653;BME280;11493;43.344;26.226;2022-07-17T03:56:55;99503.72;;;22.46;64.43
22653;BME280;11493;43.344;26.226;2022-07-17T03:59:22;99497.31;;;22.45;64.69
22653;BME280;11493;43.344;26.226;2022-07-17T04:01:49;99511.00;;;22.54;64.05
22653;BME280;11493;43.344;26.226;2022-07-17T04:04:17;99504.94;;;22.48;64.12
22653;BME280;11493;43.344;26.226;2022-07-17T04:06:45;99515.41;;;22.55;63.97
22653;BME280;11493;43.344;26.226;2022-07-17T04:09:12;99523.88;;;22.66;63.44
22653;BME280;11493;43.344;26.226;2022-07-17T04:11:39;99518.63;;;22.57;63.88
22653;BME280;11493;43.344;26.226;2022-07-17T04:14:06;99520.25;;;22.58;63.95
22653;BME280;11493;43.344;26.226;2022-07-17T04:16:34;99542.00;;;22.75;64.06
22653;BME280;11493;43.344;26.226;2022-07-17T04:19:01;99544.78;;;22.75;63.50
22653;BME280;11493;43.344;26.226;2022-07-17T04:21:29;99559.28;;;22.81;62.98
22653;BME280;11493;43.344;26.226;2022-07-17T04:23:56;99564.97;;;22.91;62.25
22653;BME280;11493;43.344;26.226;2022-07-17T04:26:23;99564.97;;;22.91;62.56
22653;BME280;11493;43.344;26.226;2022-07-17T04:28:50;99534.44;;;22.79;61.21
22653;BME280;11493;43.344;26.226;2022-07-17T04:31:18;99548.94;;;22.92;59.42
22653;BME280;11493;43.344;26.226;2022-07-17T04:33:46;99549.72;;;22.92;60.33
22653;BME280;11493;43.344;26.226;2022-07-17T04:36:13;99539.66;;;22.84;60.65
22653;BME280;11493;43.344;26.226;2022-07-17T04:38:40;99558.97;;;22.93;59.26
22653;BME280;11493;43.344;26.226;2022-07-17T04:41:07;99557.78;;;22.98;58.86
22653;BME280;11493;43.344;26.226;2022-07-17T04:43:34;99557.00;;;23.01;59.13
22653;BME280;11493;43.344;26.226;2022-07-17T04:46:02;99544.94;;;22.97;58.55
22653;BME280;11493;43.344;26.226;2022-07-17T04:48:29;99574.28;;;23.17;57.97
22653;BME280;11493;43.344;26.226;2022-07-17T04:50:56;99578.72;;;23.18;57.27
22653;BME280;11493;43.344;26.226;2022-07-17T04:53:24;99579.56;;;23.25;57.76
22653;BME280;11493;43.344;26.226;2022-07-17T04:55:51;99595.25;;;23.37;56.62
22653;BME280;11493;43.344;26.226;2022-07-17T04:58:18;99573.94;;;23.29;57.07
22653;BME280;11493;43.344;26.226;2022-07-17T05:00:46;99594.03;;;23.35;57.54
22653;BME280;11493;43.344;26.226;2022-07-17T05:03:13;99579.59;;;23.33;55.88
22653;BME280;11493;43.344;26.226;2022-07-17T05:05:40;99586.84;;;23.41;56.71
22653;BME280;11493;43.344;26.226;2022-07-17T05:08:08;99588.44;;;23.38;56.58
22653;BME280;11493;43.344;26.226;2022-07-17T05:10:35;99600.50;;;23.42;55.08
22653;BME280;11493;43.344;26.226;2022-07-17T05:13:02;99619.78;;;23.51;55.26
22653;BME280;11493;43.344;26.226;2022-07-17T05:15:29;99619.03;;;23.57;55.55
22653;BME280;11493;43.344;26.226;2022-07-17T05:18:05;99602.97;;;23.54;55.22
22653;BME280;11493;43.344;26.226;2022-07-17T05:20:32;99601.78;;;23.59;54.93
22653;BME280;11493;43.344;26.226;2022-07-17T05:23:00;99611.47;;;23.72;55.18
22653;BME280;11493;43.344;26.226;2022-07-17T05:25:27;99602.25;;;23.72;55.07
22653;BME280;11493;43.344;26.226;2022-07-17T05:27:54;99617.91;;;23.73;55.15
22653;BME280;11493;43.344;26.226;2022-07-17T05:30:22;99600.59;;;23.64;55.37
22653;BME280;11493;43.344;26.226;2022-07-17T05:32:49;99620.72;;;23.76;55.66
22653;BME280;11493;43.344;26.226;2022-07-17T05:35:16;99612.25;;;23.66;55.37
22653;BME280;11493;43.344;26.226;2022-07-17T05:37:43;99609.47;;;23.73;55.34
22653;BME280;11493;43.344;26.226;2022-07-17T05:40:11;99620.31;;;23.88;55.40
22653;BME280;11493;43.344;26.226;2022-07-17T05:42:38;99608.66;;;23.83;56.12
22653;BME280;11493;43.344;26.226;2022-07-17T05:45:06;99616.34;;;24.00;56.51
22653;BME280;11493;43.344;26.226;2022-07-17T05:47:33;99634.44;;;24.13;55.83
22653;BME280;11493;43.344;26.226;2022-07-17T05:50:01;99631.25;;;24.22;56.37
22653;BME280;11493;43.344;26.226;2022-07-17T05:52:28;99607.94;;;24.21;57.01
22653;BME280;11493;43.344;26.226;2022-07-17T05:54:56;99607.94;;;24.21;57.12
22653;BME280;11493;43.344;26.226;2022-07-17T05:57:23;99620.84;;;24.37;57.44
22653;BME280;11493;43.344;26.226;2022-07-17T05:59:50;99618.44;;;24.35;58.13
22653;BME280;11493;43.344;26.226;2022-07-17T06:02:17;99625.69;;;24.40;58.84
22653;BME280;11493;43.344;26.226;2022-07-17T06:04:45;99639.34;;;24.41;59.13
22653;BME280;11493;43.344;26.226;2022-07-17T06:07:12;99643.34;;;24.54;58.42
22653;BME280;11493;43.344;26.226;2022-07-17T06:09:39;99644.16;;;24.66;58.59
22653;BME280;11493;43.344;26.226;2022-07-17T06:12:07;99648.56;;;24.74;58.03
22653;BME280;11493;43.344;26.226;2022-07-17T06:14:34;99641.34;;;24.76;57.60
22653;BME280;11493;43.344;26.226;2022-07-17T06:17:01;99630.47;;;24.75;57.05
22653;BME280;11493;43.344;26.226;2022-07-17T06:19:28;99636.91;;;24.89;57.13
22653;BME280;11493;43.344;26.226;2022-07-17T06:21:55;99648.19;;;25.04;57.23
22653;BME280;11493;43.344;26.226;2022-07-17T06:24:23;99636.09;;;25.14;57.25
22653;BME280;11493;43.344;26.226;2022-07-17T06:26:50;99640.06;;;25.27;56.66
22653;BME280;11493;43.344;26.226;2022-07-17T06:29:17;99645.66;;;25.34;56.50
22653;BME280;11493;43.344;26.226;2022-07-17T06:31:44;99623.22;;;25.20;56.36
22653;BME280;11493;43.344;26.226;2022-07-17T06:34:12;99638.44;;;25.30;56.51
22653;BME280;11493;43.344;26.226;2022-07-17T06:36:39;99644.00;;;25.51;56.05
22653;BME280;11493;43.344;26.226;2022-07-17T06:39:06;99652.03;;;25.67;55.11
22653;BME280;11493;43.344;26.226;2022-07-17T06:41:34;99648.00;;;25.71;54.91
22653;BME280;11493;43.344;26.226;2022-07-17T06:44:01;99645.94;;;25.82;55.33
22653;BME280;11493;43.344;26.226;2022-07-17T06:46:28;99647.91;;;25.89;55.65
22653;BME280;11493;43.344;26.226;2022-07-17T06:48:55;99661.09;;;26.06;55.62
22653;BME280;11493;43.344;26.226;2022-07-17T06:51:23;99647.78;;;26.07;53.81
22653;BME280;11493;43.344;26.226;2022-07-17T06:53:51;99642.94;;;26.07;53.36
22653;BME280;11493;43.344;26.226;2022-07-17T06:56:18;99649.34;;;26.18;53.49
22653;BME280;11493;43.344;26.226;2022-07-17T06:58:45;99651.66;;;26.31;53.12
22653;BME280;11493;43.344;26.226;2022-07-17T07:01:13;99654.09;;;26.32;52.74
22653;BME280;11493;43.344;26.226;2022-07-17T07:03:40;99649.28;;;26.33;52.83
22653;BME280;11493;43.344;26.226;2022-07-17T07:06:08;99644.00;;;26.38;52.74
22653;BME280;11493;43.344;26.226;2022-07-17T07:08:35;99657.94;;;26.60;52.87
22653;BME280;11493;43.344;26.226;2022-07-17T07:11:03;99661.00;;;26.76;52.15
22653;BME280;11493;43.344;26.226;2022-07-17T07:13:30;99659.00;;;26.76;52.52
22653;BME280;11493;43.344;26.226;2022-07-17T07:15:58;99667.41;;;26.83;51.66
22653;BME280;11493;43.344;26.226;2022-07-17T07:18:26;99648.03;;;26.85;50.56
22653;BME280;11493;43.344;26.226;2022-07-17T07:20:54;99660.81;;;27.01;48.16
22653;BME280;11493;43.344;26.226;2022-07-17T07:23:21;99667.25;;;27.05;48.33
22653;BME280;11493;43.344;26.226;2022-07-17T07:25:49;99646.31;;;26.99;48.55
22653;BME280;11493;43.344;26.226;2022-07-17T07:28:16;99655.44;;;27.17;47.38
22653;BME280;11493;43.344;26.226;2022-07-17T07:30:43;99652.59;;;27.17;47.78
22653;BME280;11493;43.344;26.226;2022-07-17T07:33:11;99651.72;;;27.24;48.11
22653;BME280;11493;43.344;26.226;2022-07-17T07:35:39;99649.28;;;27.26;47.37
22653;BME280;11493;43.344;26.226;2022-07-17T07:38:08;99659.31;;;27.30;47.34
22653;BME280;11493;43.344;26.226;2022-07-17T07:40:36;99642.06;;;27.21;48.26
22653;BME280;11493;43.344;26.226;2022-07-17T07:43:03;99629.97;;;27.21;47.58
22653;BME280;11493;43.344;26.226;2022-07-17T07:45:31;99656.31;;;27.48;48.02
22653;BME280;11493;43.344;26.226;2022-07-17T07:47:58;99662.66;;;27.56;48.10
22653;BME280;11493;43.344;26.226;2022-07-17T07:50:26;99669.63;;;27.47;46.63
22653;BME280;11493;43.344;26.226;2022-07-17T07:52:54;99666.81;;;27.47;47.13
22653;BME280;11493;43.344;26.226;2022-07-17T07:55:21;99663.44;;;27.56;47.04
22653;BME280;11493;43.344;26.226;2022-07-17T07:57:49;99661.75;;;27.66;46.44
22653;BME280;11493;43.344;26.226;2022-07-17T08:00:17;99654.41;;;27.72;47.60
22653;BME280;11493;43.344;26.226;2022-07-17T08:02:45;99666.38;;;27.83;46.98
22653;BME280;11493;43.344;26.226;2022-07-17T08:05:12;99652.63;;;27.85;46.94
22653;BME280;11493;43.344;26.226;2022-07-17T08:07:39;99665.06;;;27.91;46.56
22653;BME280;11493;43.344;26.226;2022-07-17T08:10:07;99667.00;;;27.98;46.17
22653;BME280;11493;43.344;26.226;2022-07-17T08:12:34;99659.00;;;27.93;45.90
22653;BME280;11493;43.344;26.226;2022-07-17T08:15:14;99683.84;;;28.08;46.67
22653;BME280;11493;43.344;26.226;2022-07-17T08:17:41;99656.44;;;28.02;47.33
22653;BME280;11493;43.344;26.226;2022-07-17T08:20:09;99671.94;;;28.21;47.11
22653;BME280;11493;43.344;26.226;2022-07-17T08:22:45;99674.78;;;28.21;44.58
22653;BME280;11493;43.344;26.226;2022-07-17T08:25:32;99671.28;;;28.09;43.55
22653;BME280;11493;43.344;26.226;2022-07-17T08:28:01;99683.34;;;28.13;42.16
22653;BME280;11493;43.344;26.226;2022-07-17T08:30:28;99636.13;;;27.80;41.95
22653;BME280;11493;43.344;26.226;2022-07-17T08:32:56;99665.63;;;28.09;42.32
22653;BME280;11493;43.344;26.226;2022-07-17T08:35:23;99670.34;;;28.20;42.24
22653;BME280;11493;43.344;26.226;2022-07-17T08:37:51;99655.41;;;28.19;42.76
22653;BME280;11493;43.344;26.226;2022-07-17T08:40:24;99683.44;;;28.37;41.75
22653;BME280;11493;43.344;26.226;2022-07-17T08:42:54;99660.91;;;28.30;40.48
22653;BME280;11493;43.344;26.226;2022-07-17T08:45:21;99661.16;;;28.39;40.32
22653;BME280;11493;43.344;26.226;2022-07-17T08:47:50;99665.97;;;28.42;40.41
22653;BME280;11493;43.344;26.226;2022-07-17T08:50:33;99682.47;;;28.47;40.25
22653;BME280;11493;43.344;26.226;2022-07-17T08:53:02;99656.63;;;28.45;40.23
22653;BME280;11493;43.344;26.226;2022-07-17T08:55:29;99675.47;;;28.55;40.71
22653;BME280;11493;43.344;26.226;2022-07-17T08:57:57;99670.56;;;28.59;41.01
22653;BME280;11493;43.344;26.226;2022-07-17T09:00:27;99665.91;;;28.72;40.25
22653;BME280;11493;43.344;26.226;2022-07-17T09:03:05;99664.41;;;28.64;40.21
22653;BME280;11493;43.344;26.226;2022-07-17T09:05:36;99670.81;;;28.68;40.92
22653;BME280;11493;43.344;26.226;2022-07-17T09:08:06;99651.59;;;28.56;39.08
22653;BME280;11493;43.344;26.226;2022-07-17T09:10:39;99673.53;;;28.75;39.31
22653;BME280;11493;43.344;26.226;2022-07-17T09:13:22;99663.38;;;28.78;39.75
22653;BME280;11493;43.344;26.226;2022-07-17T09:15:59;99663.31;;;28.82;39.34
22653;BME280;11493;43.344;26.226;2022-07-17T09:18:47;99681.09;;;28.86;38.79
22653;BME280;11493;43.344;26.226;2022-07-17T09:21:25;99668.03;;;28.92;37.60
22653;BME280;11493;43.344;26.226;2022-07-17T09:24:12;99664.56;;;29.04;38.47
22653;BME280;11493;43.344;26.226;2022-07-17T09:26:44;99687.22;;;29.04;37.25
22653;BME280;11493;43.344;26.226;2022-07-17T09:29:14;99651.56;;;29.06;36.70
22653;BME280;11493;43.344;26.226;2022-07-17T09:31:41;99667.06;;;29.22;36.69
22653;BME280;11493;43.344;26.226;2022-07-17T09:34:17;99673.09;;;29.24;37.13
22653;BME280;11493;43.344;26.226;2022-07-17T09:36:45;99667.75;;;29.29;36.29
22653;BME280;11493;43.344;26.226;2022-07-17T09:39:12;99662.50;;;29.28;36.81
22653;BME280;11493;43.344;26.226;2022-07-17T09:41:39;99666.44;;;29.34;36.37
22653;BME280;11493;43.344;26.226;2022-07-17T09:44:07;99669.97;;;29.41;35.79
22653;BME280;11493;43.344;26.226;2022-07-17T09:46:34;99664.03;;;29.32;34.98
22653;BME280;11493;43.344;26.226;2022-07-17T09:49:05;99650.44;;;29.24;35.64
22653;BME280;11493;43.344;26.226;2022-07-17T09:51:38;99658.38;;;29.32;35.33
22653;BME280;11493;43.344;26.226;2022-07-17T09:54:08;99665.69;;;29.53;34.47
22653;BME280;11493;43.344;26.226;2022-07-17T09:56:37;99659.59;;;29.55;34.83
22653;BME280;11493;43.344;26.226;2022-07-17T09:59:08;99618.31;;;29.30;34.92
22653;BME280;11493;43.344;26.226;2022-07-17T10:01:38;99648.59;;;29.57;35.62
22653;BME280;11493;43.344;26.226;2022-07-17T10:04:06;99662.31;;;29.78;34.42
22653;BME280;11493;43.344;26.226;2022-07-17T10:06:34;99640.50;;;29.75;34.81
22653;BME280;11493;43.344;26.226;2022-07-17T10:09:02;99641.06;;;29.86;34.74
22653;BME280;11493;43.344;26.226;2022-07-17T10:11:35;99650.91;;;30.01;35.22
22653;BME280;11493;43.344;26.226;2022-07-17T10:14:14;99650.38;;;30.06;32.22
22653;BME280;11493;43.344;26.226;2022-07-17T10:16:41;99644.63;;;30.10;31.75
22653;BME280;11493;43.344;26.226;2022-07-17T10:21:56;99650.22;;;30.14;32.92
22653;BME280;11493;43.344;26.226;2022-07-17T10:24:26;99633.19;;;30.14;32.75
22653;BME280;11493;43.344;26.226;2022-07-17T10:26:54;99639.44;;;30.25;32.64
22653;BME280;11493;43.344;26.226;2022-07-17T10:32:01;99623.63;;;30.07;32.27
22653;BME280;11493;43.344;26.226;2022-07-17T10:34:46;99633.66;;;30.12;32.70
22653;BME280;11493;43.344;26.226;2022-07-17T10:39:59;99636.84;;;29.94;33.68
22653;BME280;11493;43.344;26.226;2022-07-17T10:50:37;99625.25;;;30.41;30.96
22653;BME280;11493;43.344;26.226;2022-07-17T10:53:14;99637.66;;;30.47;30.84
22653;BME280;11493;43.344;26.226;2022-07-17T10:55:58;99613.69;;;30.48;30.77
22653;BME280;11493;43.344;26.226;2022-07-17T10:58:29;99621.06;;;30.46;31.19
22653;BME280;11493;43.344;26.226;2022-07-17T11:09:04;99612.22;;;30.76;30.92
22653;BME280;11493;43.344;26.226;2022-07-17T11:11:49;99615.31;;;30.49;31.21
22653;BME280;11493;43.344;26.226;2022-07-17T11:14:18;99616.56;;;30.32;31.75
22653;BME280;11493;43.344;26.226;2022-07-17T11:16:54;99618.84;;;30.21;32.02
22653;BME280;11493;43.344;26.226;2022-07-17T11:19:36;99616.63;;;30.28;31.72
22653;BME280;11493;43.344;26.226;2022-07-17T11:22:16;99604.13;;;30.26;31.30
22653;BME280;11493;43.344;26.226;2022-07-17T11:24:47;99604.50;;;30.60;31.04
22653;BME280;11493;43.344;26.226;2022-07-17T11:27:41;99610.34;;;30.69;31.26
22653;BME280;11493;43.344;26.226;2022-07-17T11:30:12;99597.56;;;30.78;31.10
22653;BME280;11493;43.344;26.226;2022-07-17T11:32:41;99600.41;;;30.78;31.05
22653;BME280;11493;43.344;26.226;2022-07-17T11:35:20;99590.81;;;30.88;30.63
22653;BME280;11493;43.344;26.226;2022-07-17T11:38:07;99598.78;;;30.93;30.82
22653;BME280;11493;43.344;26.226;2022-07-17T11:40:48;99592.41;;;30.89;31.22
22653;BME280;11493;43.344;26.226;2022-07-17T11:43:15;99609.53;;;31.01;31.55
22653;BME280;11493;43.344;26.226;2022-07-17T11:45:44;99602.41;;;31.10;31.15
22653;BME280;11493;43.344;26.226;2022-07-17T11:48:11;99576.47;;;31.08;31.25
22653;BME280;11493;43.344;26.226;2022-07-17T11:50:39;99567.50;;;31.09;30.82
22653;BME280;11493;43.344;26.226;2022-07-17T11:53:06;99581.31;;;31.23;29.97
22653;BME280;11493;43.344;26.226;2022-07-17T11:55:39;99563.59;;;31.19;29.71
22653;BME280;11493;43.344;26.226;2022-07-17T11:58:07;99583.06;;;31.33;30.95
22653;BME280;11493;43.344;26.226;2022-07-17T12:00:35;99565.00;;;31.40;30.95
22653;BME280;11493;43.344;26.226;2022-07-17T12:03:05;99564.47;;;31.58;30.52
22653;BME280;11493;43.344;26.226;2022-07-17T12:05:35;99571.69;;;31.75;30.11
22653;BME280;11493;43.344;26.226;2022-07-17T12:08:02;99565.34;;;31.84;30.32
22653;BME280;11493;43.344;26.226;2022-07-17T12:10:30;99565.13;;;31.91;29.91
22653;BME280;11493;43.344;26.226;2022-07-17T12:13:05;99573.31;;;31.89;29.33
22653;BME280;11493;43.344;26.226;2022-07-17T12:15:44;99563.41;;;31.93;29.46
22653;BME280;11493;43.344;26.226;2022-07-17T12:18:24;99544.59;;;31.71;29.99
22653;BME280;11493;43.344;26.226;2022-07-17T12:20:57;99566.91;;;31.97;29.78
22653;BME280;11493;43.344;26.226;2022-07-17T12:26:18;99561.94;;;31.89;29.41
22653;BME280;11493;43.344;26.226;2022-07-17T12:28:46;99559.16;;;31.73;29.58
22653;BME280;11493;43.344;26.226;2022-07-17T12:31:15;99561.56;;;31.32;30.53
22653;BME280;11493;43.344;26.226;2022-07-17T12:33:43;99555.41;;;31.34;29.79
22653;BME280;11493;43.344;26.226;2022-07-17T12:36:11;99556.34;;;31.44;30.72
22653;BME280;11493;43.344;26.226;2022-07-17T12:38:38;99566.75;;;31.63;29.99
22653;BME280;11493;43.344;26.226;2022-07-17T12:41:06;99553.88;;;31.58;30.12
22653;BME280;11493;43.344;26.226;2022-07-17T12:43:33;99546.91;;;31.47;30.33
22653;BME280;11493;43.344;26.226;2022-07-17T12:46:01;99553.22;;;31.25;29.98
22653;BME280;11493;43.344;26.226;2022-07-17T12:48:38;99547.50;;;31.13;31.15
22653;BME280;11493;43.344;26.226;2022-07-17T12:51:09;99547.00;;;31.01;30.53
22653;BME280;11493;43.344;26.226;2022-07-17T12:53:38;99548.19;;;30.88;31.16
22653;BME280;11493;43.344;26.226;2022-07-17T12:56:08;99537.13;;;30.77;31.27
22653;BME280;11493;43.344;26.226;2022-07-17T12:58:38;99533.91;;;30.75;31.31
22653;BME280;11493;43.344;26.226;2022-07-17T13:01:06;99538.63;;;30.82;31.47
22653;BME280;11493;43.344;26.226;2022-07-17T13:03:33;99538.34;;;30.76;31.61
22653;BME280;11493;43.344;26.226;2022-07-17T13:06:01;99542.00;;;30.77;31.23
22653;BME280;11493;43.344;26.226;2022-07-17T13:08:30;99539.47;;;30.95;31.40
22653;BME280;11493;43.344;26.226;2022-07-17T13:10:58;99539.56;;;31.20;30.59
22653;BME280;11493;43.344;26.226;2022-07-17T13:13:28;99527.44;;;31.32;30.21
22653;BME280;11493;43.344;26.226;2022-07-17T13:15:58;99524.88;;;31.51;30.93
22653;BME280;11493;43.344;26.226;2022-07-17T13:18:26;99525.22;;;31.65;30.34
22653;BME280;11493;43.344;26.226;2022-07-17T13:20:53;99522.41;;;31.78;30.43
22653;BME280;11493;43.344;26.226;2022-07-17T13:23:28;99529.72;;;31.79;29.36
22653;BME280;11493;43.344;26.226;2022-07-17T13:25:55;99521.50;;;31.81;29.81
22653;BME280;11493;43.344;26.226;2022-07-17T13:28:23;99527.19;;;31.68;29.48